Archival Weather

Alykel

Alykel, Russia (UOOO)

Report from: Tuesday, November 21, 2023 4:00 PM UTC
Current time: Friday, July 19, 2024 1:45 AM UTC

Current weather – Weather history – Daily summaries
Weather forecast

Present weatherLight snow, drifting snow
Temperature-26.0°C (-14.8°F)
Wind chill-37.4°C (-35.4°F)
Dew point-29.0°C (-20.2°F)
Winds 9.7 kts (5 m/s, 11.2 mph) South (180°)
Visibility3.1 mi. (5 km)
Clouds Ceiling: Overcast 1,500 ft. (457 m)
Altimeter30.33 in.Hg (1027 mB)
Precip. events QF 3:34 AM
Relative humidity76 %
Density altitude-5,792 ft. (-1,765 m)
Remarks No significant changes expected in the next two hours
Flight conditions Marginal Visual Meteorological Conditions
Raw dataUOOO 211600Z 18005MPS 5000 -SN DRSN OVC015 M26/M29 Q1027 R19/35//60 NOSIG RMK QFE754/1005
An error has occurred. This application may no longer respond until reloaded. Reload 🗙